Flight Track Log - Related Links

Times and Time Zones

All times are in EDT time to prevent confusion due to time zone crossing. See the SKW6345 flight status page for this flight to view local times or setup timezone preferences in your user account.

Time Position Orientation Groundspeed Altitude Reporting Facility
EDT Latitude Longitude Course Direction KTS MPH feet Rate Location/Type
Sun 02:00:14 PM 45.7028 -111.2028 239° Southwest 248 285 8,000  Level Salt Lake Center
Sun 02:01:00 PM 45.7294 -111.5225 282° West  Level FlightAware Approximate
Sun 02:01:16 PM 45.7092 -111.3119 275° West 267 307 10,300  Level Salt Lake Center
Sun 02:02:00 PM 45.7398 -111.6623 288° West  Level FlightAware Approximate
Sun 02:02:18 PM 45.7231 -111.4300 280° West 284 327 12,200  Level Salt Lake Center
Sun 02:03:00 PM 45.7698 -111.7974 288° West  Level FlightAware Approximate
Sun 02:03:20 PM 45.6764 -111.5600 243° Southwest 310 357 15,300  Level Salt Lake Center
Sun 02:04:00 PM 45.7998 -111.9326 288° West  Level FlightAware Approximate
Sun 02:04:22 PM 45.6283 -111.6628 236° Southwest 312 359 17,100  Level Salt Lake Center
Sun 02:05:24 PM 45.5817 -111.7714 238° Southwest 319 367 18,500 1,452 Climbing Salt Lake Center
Sun 02:06:26 PM 45.5322 -111.8828 238° Southwest 330 380 20,100 1,452 Climbing Salt Lake Center
Sun 02:07:28 PM 45.4825 -111.9967 238° Southwest 337 388 21,500 1,452 Climbing Salt Lake Center
Sun 02:08:30 PM 45.4303 -112.1136 238° Southwest 347 399 23,100 1,597 Climbing Salt Lake Center
Sun 02:09:32 PM 45.3664 -112.2558 237° Southwest 355 409 24,800 1,403 Climbing Salt Lake Center
Sun 02:10:34 PM 45.3144 -112.3736 238° Southwest 359 413 26,000 1,065 Climbing Salt Lake Center
Sun 02:11:36 PM 45.2614 -112.4897 237° Southwest 365 420 27,000 968 Climbing Salt Lake Center
Sun 02:12:38 PM 45.1994 -112.6261 237° Southwest 368 423 28,000 1,016 Climbing Salt Lake Center
Sun 02:13:40 PM 45.1453 -112.7456 237° Southwest 375 432 29,100 871 Climbing Salt Lake Center
Sun 02:14:42 PM 45.0811 -112.8839 237° Southwest 378 435 29,800 726 Climbing Salt Lake Center
Sun 02:15:44 PM 45.0256 -113.0050 237° Southwest 383 441 30,600 677 Climbing Salt Lake Center
Sun 02:16:46 PM 44.9622 -113.1464 238° Southwest 383 441 31,200 677 Climbing Salt Lake Center
Sun 02:17:48 PM 44.9053 -113.2678 237° Southwest 385 443 32,000 387 Climbing Salt Lake Center
Sun 02:18:50 PM 44.8375 -113.4108 236° Southwest 393 452 32,000  Level Salt Lake Center
Sun 02:19:52 PM 44.7794 -113.5364 237° Southwest 400 460 32,000  Level Salt Lake Center
Sun 02:20:54 PM 44.7117 -113.6808 237° Southwest 397 457 32,000  Level Salt Lake Center
Sun 02:21:56 PM 44.6539 -113.8042 237° Southwest 396 456 32,000  Level Salt Lake Center
Sun 02:22:58 PM 44.5894 -113.9447 237° Southwest 392 451 32,000  Level Salt Lake Center
Sun 02:24:00 PM 44.5308 -114.0667 236° Southwest 391 450 32,000  Level Salt Lake Center
Sun 02:25:02 PM 44.4650 -114.2072 237° Southwest 387 445 32,000  Level Salt Lake Center
Sun 02:26:04 PM 44.4064 -114.3278 236° Southwest 390 449 32,000  Level Salt Lake Center
Sun 02:27:06 PM 44.3369 -114.4703 236° Southwest 394 453 32,000  Level Salt Lake Center
Sun 02:28:08 PM 44.2781 -114.5906 236° Southwest 393 452 32,000  Level Salt Lake Center
Sun 02:29:10 PM 44.2186 -114.7125 236° Southwest 394 453 32,000  Level Salt Lake Center
Sun 02:30:12 PM 44.1494 -114.8536 236° Southwest 394 453 32,000  Level Salt Lake Center
Sun 02:31:14 PM 44.0897 -114.9742 235° Southwest 394 453 32,000  Level Salt Lake Center
Sun 02:32:16 PM 44.0164 -115.1194 235° Southwest 403 464 32,000  Level Salt Lake Center
Sun 02:33:18 PM 43.9564 -115.2422 236° Southwest 401 461 32,000  Level Salt Lake Center
Sun 02:34:20 PM 43.8861 -115.3825 235° Southwest 396 456 32,000  Level Salt Lake Center
Sun 02:35:22 PM 43.8256 -115.5022 235° Southwest 396 456 32,000  Level Salt Lake Center
Sun 02:36:24 PM 43.7547 -115.6450 236° Southwest 400 460 32,000  Level Salt Lake Center
Sun 02:37:26 PM 43.6936 -115.7672 235° Southwest 401 461 32,000  Level Salt Lake Center
Sun 02:38:28 PM 43.6311 -115.8903 235° Southwest 406 467 32,000  Level Salt Lake Center
Sun 02:39:30 PM 43.5594 -116.0311 235° Southwest 401 461 32,000  Level Salt Lake Center
Sun 02:40:32 PM 43.4978 -116.1519 235° Southwest 402 463 32,000  Level Salt Lake Center
Sun 02:41:34 PM 43.4253 -116.2931 235° Southwest 403 464 32,000  Level Salt Lake Center
Sun 02:42:36 PM 43.3636 -116.4142 235° Southwest 402 463 32,000  Level Salt Lake Center
Sun 02:43:38 PM 43.2911 -116.5525 234° Southwest 401 461 32,000  Level Salt Lake Center
Sun 02:44:40 PM 43.2289 -116.6714 234° Southwest 400 460 32,000  Level Salt Lake Center
Sun 02:45:42 PM 43.1564 -116.8097 234° Southwest 398 458 32,000  Level Salt Lake Center
Sun 02:46:43 PM 43.0942 -116.9275 234° Southwest 399 459 32,000  Level Salt Lake Center
Sun 02:47:45 PM 43.0328 -117.0444 234° Southwest 395 455 32,000  Level Salt Lake Center
Sun 02:48:47 PM 42.9614 -117.1792 234° Southwest 393 452 32,000  Level Salt Lake Center
Sun 02:49:49 PM 42.9000 -117.2939 234° Southwest 391 450 32,000  Level Salt Lake Center
Sun 02:50:51 PM 42.8292 -117.4267 234° Southwest 388 447 32,000  Level Salt Lake Center
Sun 02:51:53 PM 42.7678 -117.5408 234° Southwest 388 447 32,000  Level Salt Lake Center
Sun 02:52:55 PM 42.6964 -117.6736 234° Southwest 389 448 32,000  Level Salt Lake Center
Sun 02:53:57 PM 42.6356 -117.7872 234° Southwest 388 447 32,000  Level Salt Lake Center
Sun 02:54:58 PM 42.5628 -117.8875 225° Southwest 391 450 32,000  Level Salt Lake Center
Sun 02:56:00 PM 42.4522 -117.9592 206° Southwest 396 456 32,000  Level Salt Lake Center
Sun 02:57:02 PM 42.3561 -118.0136 203° Southwest 391 450 32,000  Level Salt Lake Center
Sun 02:58:04 PM 42.2447 -118.0808 204° Southwest 393 452 32,000  Level Salt Lake Center
Sun 02:59:06 PM 42.1481 -118.1417 205° Southwest 390 449 32,000  Level Salt Lake Center
Sun 03:00:08 PM 42.0364 -118.2081 204° Southwest 392 451 32,000  Level Salt Lake Center
Sun 03:01:10 PM 41.9411 -118.2658 204° Southwest 392 451 32,000  Level Salt Lake Center
Sun 03:02:12 PM 41.8511 -118.3347 210° Southwest 390 449 32,000  Level Salt Lake Center
Sun 03:03:14 PM 41.7653 -118.4478 225° Southwest 387 445 32,000  Level Salt Lake Center
Sun 03:04:16 PM 41.6928 -118.5428 224° Southwest 383 441 32,000  Level Salt Lake Center
Sun 03:05:17 PM 41.6058 -118.6539 224° Southwest 386 444 32,000  Level Salt Lake Center
Sun 03:06:19 PM 41.5322 -118.7494 224° Southwest 386 444 32,000  Level Salt Lake Center
Sun 03:07:21 PM 41.4447 -118.8603 224° Southwest 387 445 32,000  Level Salt Lake Center
Sun 03:08:23 PM 41.3711 -118.9553 224° Southwest 386 444 32,000  Level Salt Lake Center
Sun 03:09:25 PM 41.2850 -119.0656 224° Southwest 385 443 32,000  Level Salt Lake Center
Sun 03:10:27 PM 41.2089 -119.1603 223° Southwest 388 447 32,000  Level Salt Lake Center
Sun 03:11:29 PM 41.1211 -119.2717 224° Southwest 391 450 32,000  Level Salt Lake Center
Sun 03:12:31 PM 41.0444 -119.3678 223° Southwest 393 452 32,000  Level Salt Lake Center
Sun 03:13:04 PM 40.9956 -119.4303 224° Southwest 394 453 32,000  Level Oakland Center
Sun 03:14:05 PM 40.9186 -119.5275 224° Southwest 396 456 32,000  Level Oakland Center
Sun 03:15:07 PM 40.8422 -119.6228 223° Southwest 396 456 32,000  Level Oakland Center
Sun 03:16:09 PM 40.7528 -119.7314 223° Southwest 399 459 32,000  Level Oakland Center
Sun 03:17:10 PM 40.6736 -119.8283 223° Southwest 392 451 32,000  Level Oakland Center
Sun 03:18:12 PM 40.5922 -119.9292 223° Southwest 399 459 32,000  Level Oakland Center
Sun 03:19:14 PM 40.5103 -120.0303 223° Southwest 404 465 32,000  Level Oakland Center
Sun 03:20:15 PM 40.4142 -120.1486 223° Southwest 396 456 32,000  Level Oakland Center
Sun 03:21:17 PM 40.3328 -120.2458 222° Southwest 396 456 32,000  Level Oakland Center
Sun 03:22:19 PM 40.2497 -120.3481 223° Southwest 407 468 32,000  Level Oakland Center
Sun 03:23:20 PM 40.1686 -120.4464 223° Southwest 402 463 32,000  Level Oakland Center
Sun 03:24:22 PM 40.0822 -120.5497 222° Southwest 397 457 32,000  Level Oakland Center
Sun 03:25:24 PM 39.9989 -120.6500 223° Southwest 401 461 32,000  Level Oakland Center
Sun 03:26:25 PM 39.9172 -120.7497 223° Southwest 403 464 32,000  Level Oakland Center
Sun 03:27:27 PM 39.8356 -120.8453 222° Southwest 398 458 32,000  Level Oakland Center
Sun 03:28:28 PM 39.7522 -120.9411 221° Southwest 399 459 32,000  Level Oakland Center
Sun 03:29:30 PM 39.6703 -121.0406 223° Southwest 402 463 32,000  Level Oakland Center
Sun 03:30:32 PM 39.5875 -121.1381 222° Southwest 403 464 32,000  Level Oakland Center
Sun 03:31:33 PM 39.4878 -121.2558 222° Southwest 405 466 32,000  Level Oakland Center
Sun 03:32:35 PM 39.4050 -121.3547 223° Southwest 405 466 32,000  Level Oakland Center
Sun 03:33:36 PM 39.3206 -121.4533 222° Southwest 410 472 32,000  Level Oakland Center
Sun 03:34:38 PM 39.2372 -121.5514 222° Southwest 409 471 32,000  Level Oakland Center
Sun 03:35:40 PM 39.1531 -121.6500 222° Southwest 410 472 32,000  Level Oakland Center
Sun 03:36:41 PM 39.0678 -121.7475 222° Southwest 412 474 32,000  Level Oakland Center
Sun 03:37:43 PM 38.9667 -121.8647 222° Southwest 412 474 32,000  Level Oakland Center
Sun 03:38:44 PM 38.8822 -121.9617 222° Southwest 411 473 32,000  Level Oakland Center
Sun 03:39:46 PM 38.7972 -122.0592 222° Southwest 413 475 32,000  Level Oakland Center
Sun 03:40:48 PM 38.7125 -122.1561 222° Southwest 410 472 32,000  Level Oakland Center
Sun 03:41:49 PM 38.6183 -122.2628 222° Southwest 411 473 32,000 -146 Level Oakland Center
Sun 03:42:51 PM 38.5328 -122.3603 222° Southwest 414 476 31,700 -1,659 Descending Oakland Center
Sun 03:43:52 PM 38.4444 -122.4608 222° Southwest 427 491 28,600 -2,976 Descending Oakland Center
Sun 03:44:54 PM 38.3583 -122.5586 222° Southwest 419 482 25,600 -2,780 Descending Oakland Center
Sun 03:45:55 PM 38.2822 -122.6447 222° Southwest 375 432 22,900 -2,537 Descending Oakland Center
Sun 03:46:57 PM 38.2103 -122.7261 222° Southwest 350 403 20,400 -2,488 Descending Oakland Center
Sun 03:47:58 PM 38.1414 -122.8042 222° Southwest 338 389 17,800 -2,537 Descending Oakland Center
Sun 03:49:00 PM 38.0436 -122.8408 196° South 332 382 15,200 -2,341 Descending Oakland Center
Sun 03:50:01 PM 37.9758 -122.7708 141° Southeast 324 373 13,000 -2,049 Descending Oakland Center
Sun 03:51:03 PM 37.9100 -122.6997 140° Southeast 317 365 11,000 -976 Descending Oakland Center
Sun 03:52:04 PM 37.8439 -122.6272 139° Southeast 324 373 11,000  Level Oakland Center
Sun 03:52:46 PM 37.8000 -122.5667 133° Southeast 291 335 11,000  Level Northern Cal TRACON
Sun 03:53:46 PM 37.7333 -122.5000 142° Southeast 304 350 11,000  Level Northern Cal TRACON
Sun 03:54:47 PM 37.6667 -122.4333 142° Southeast 290 334 11,000  Level Northern Cal TRACON
Sun 03:55:47 PM 37.6167 -122.3667 133° Southeast 274 315 11,000 -850 Level Northern Cal TRACON
Sun 03:56:47 PM 37.5333 -122.3167 155° Southeast 268 308 9,300 -1,800 Descending Northern Cal TRACON
Sun 03:57:47 PM 37.4667 -122.2833 158° South 265 305 7,400 -1,850 Descending Northern Cal TRACON
Sun 03:58:47 PM 37.4333 -122.2167 122° Southeast 265 305 5,600 -1,200 Descending Northern Cal TRACON
Sun 03:59:47 PM 37.4333 -122.1333 90° East 260 299 5,000 -400 Descending Northern Cal TRACON
Sun 04:00:47 PM 37.4833 -122.1333 360° North 190 219 4,800 -500 Descending Northern Cal TRACON
Sun 04:01:47 PM 37.5333 -122.1667 332° Northwest 171 197 4,000 -579 Descending Northern Cal TRACON
Sun 04:02:41 PM 37.5500 -122.2167 293° West 166 191 3,700 -632 Descending Northern Cal TRACON
Sun 04:03:41 PM 37.5667 -122.2500 302° West 126 145 2,800 -900 Descending Northern Cal TRACON

Login

Don't have an account? Register now (free) for customized features, flight alerts, and more!